sensor_id;sensor_type;location;lat;lon;timestamp;temperature;humidity
23371;DHT22;11858;51.056;3.712;2023-02-13T00:22:24;9.10;99.90
23371;DHT22;11858;51.056;3.712;2023-02-13T00:24:50;9.00;99.90
23371;DHT22;11858;51.056;3.712;2023-02-13T00:27:16;9.00;99.90
23371;DHT22;11858;51.056;3.712;2023-02-13T00:29:41;9.10;99.90
23371;DHT22;11858;51.056;3.712;2023-02-13T00:32:07;9.10;99.90
23371;DHT22;11858;51.056;3.712;2023-02-13T00:34:33;9.10;99.90
23371;DHT22;11858;51.056;3.712;2023-02-13T00:36:59;9.10;99.90
23371;DHT22;11858;51.056;3.712;2023-02-13T00:39:25;9.20;99.90
23371;DHT22;11858;51.056;3.712;2023-02-13T00:41:51;9.10;99.90
23371;DHT22;11858;51.056;3.712;2023-02-13T00:47:57;9.10;99.90
23371;DHT22;11858;51.056;3.712;2023-02-13T00:50:22;9.00;99.90
23371;DHT22;11858;51.056;3.712;2023-02-13T00:52:48;9.00;99.90
23371;DHT22;11858;51.056;3.712;2023-02-13T00:55:14;9.00;99.90
23371;DHT22;11858;51.056;3.712;2023-02-13T00:57:40;8.90;99.90
23371;DHT22;11858;51.056;3.712;2023-02-13T01:00:06;8.90;99.90
23371;DHT22;11858;51.056;3.712;2023-02-13T01:02:32;8.90;99.90
23371;DHT22;11858;51.056;3.712;2023-02-13T01:05:01;8.80;99.90
23371;DHT22;11858;51.056;3.712;2023-02-13T01:07:26;8.90;99.90
23371;DHT22;11858;51.056;3.712;2023-02-13T01:09:52;8.90;99.90
23371;DHT22;11858;51.056;3.712;2023-02-13T01:12:18;8.90;99.90
23371;DHT22;11858;51.056;3.712;2023-02-13T01:14:43;8.90;99.90
23371;DHT22;11858;51.056;3.712;2023-02-13T01:17:09;8.90;99.90
23371;DHT22;11858;51.056;3.712;2023-02-13T01:19:35;8.90;99.90
23371;DHT22;11858;51.056;3.712;2023-02-13T01:22:01;8.90;99.90
23371;DHT22;11858;51.056;3.712;2023-02-13T01:24:26;8.90;99.90
23371;DHT22;11858;51.056;3.712;2023-02-13T01:26:54;8.80;99.90
23371;DHT22;11858;51.056;3.712;2023-02-13T01:29:20;8.80;99.90
23371;DHT22;11858;51.056;3.712;2023-02-13T01:31:46;8.80;99.90
23371;DHT22;11858;51.056;3.712;2023-02-13T01:34:11;8.70;99.90
23371;DHT22;11858;51.056;3.712;2023-02-13T01:36:38;8.70;99.90
23371;DHT22;11858;51.056;3.712;2023-02-13T01:39:03;8.70;99.90
23371;DHT22;11858;51.056;3.712;2023-02-13T01:41:29;8.70;99.90
23371;DHT22;11858;51.056;3.712;2023-02-13T01:43:57;8.60;99.90
23371;DHT22;11858;51.056;3.712;2023-02-13T01:46:25;8.50;99.90
23371;DHT22;11858;51.056;3.712;2023-02-13T01:48:56;8.40;99.90
23371;DHT22;11858;51.056;3.712;2023-02-13T01:51:27;8.50;99.90
23371;DHT22;11858;51.056;3.712;2023-02-13T01:54:04;8.40;99.90
23371;DHT22;11858;51.056;3.712;2023-02-13T01:56:44;8.30;99.90
23371;DHT22;11858;51.056;3.712;2023-02-13T01:59:16;8.20;99.90
23371;DHT22;11858;51.056;3.712;2023-02-13T02:01:43;8.00;99.90
23371;DHT22;11858;51.056;3.712;2023-02-13T02:04:17;8.00;99.90
23371;DHT22;11858;51.056;3.712;2023-02-13T02:06:51;7.80;99.90
23371;DHT22;11858;51.056;3.712;2023-02-13T02:09:21;7.80;99.90
23371;DHT22;11858;51.056;3.712;2023-02-13T02:11:55;7.60;99.90
23371;DHT22;11858;51.056;3.712;2023-02-13T02:14:25;7.60;99.90
23371;DHT22;11858;51.056;3.712;2023-02-13T02:16:51;7.50;99.90
23371;DHT22;11858;51.056;3.712;2023-02-13T02:33:23;7.00;99.90
23371;DHT22;11858;51.056;3.712;2023-02-13T02:36:04;7.00;99.90
23371;DHT22;11858;51.056;3.712;2023-02-13T02:41:29;6.90;99.90
23371;DHT22;11858;51.056;3.712;2023-02-13T03:01:08;6.30;99.90
23371;DHT22;11858;51.056;3.712;2023-02-13T03:03:56;6.30;99.90
23371;DHT22;11858;51.056;3.712;2023-02-13T03:09:15;6.40;99.90
23371;DHT22;11858;51.056;3.712;2023-02-13T03:12:03;6.40;99.90
23371;DHT22;11858;51.056;3.712;2023-02-13T03:14:47;6.30;99.90
23371;DHT22;11858;51.056;3.712;2023-02-13T03:17:16;6.20;99.90
23371;DHT22;11858;51.056;3.712;2023-02-13T03:26:03;6.10;99.90
23371;DHT22;11858;51.056;3.712;2023-02-13T03:28:42;6.10;99.90
23371;DHT22;11858;51.056;3.712;2023-02-13T03:31:52;6.10;99.90
23371;DHT22;11858;51.056;3.712;2023-02-13T03:34:31;6.10;99.90
23371;DHT22;11858;51.056;3.712;2023-02-13T03:37:26;6.10;99.90
23371;DHT22;11858;51.056;3.712;2023-02-13T03:40:16;6.10;99.90
23371;DHT22;11858;51.056;3.712;2023-02-13T03:42:52;6.00;99.90
23371;DHT22;11858;51.056;3.712;2023-02-13T03:45:36;5.90;99.90
23371;DHT22;11858;51.056;3.712;2023-02-13T03:48:21;5.90;99.90
23371;DHT22;11858;51.056;3.712;2023-02-13T03:51:07;6.00;99.90
23371;DHT22;11858;51.056;3.712;2023-02-13T03:53:36;6.10;99.90
23371;DHT22;11858;51.056;3.712;2023-02-13T03:56:03;6.10;99.90
23371;DHT22;11858;51.056;3.712;2023-02-13T03:58:52;6.00;99.90
23371;DHT22;11858;51.056;3.712;2023-02-13T04:01:38;6.00;99.90
23371;DHT22;11858;51.056;3.712;2023-02-13T04:04:25;5.90;99.90
23371;DHT22;11858;51.056;3.712;2023-02-13T04:07:05;5.80;99.90
23371;DHT22;11858;51.056;3.712;2023-02-13T04:09:35;5.80;99.90
23371;DHT22;11858;51.056;3.712;2023-02-13T04:12:19;5.80;99.90
23371;DHT22;11858;51.056;3.712;2023-02-13T04:14:54;5.80;99.90
23371;DHT22;11858;51.056;3.712;2023-02-13T04:17:32;5.80;99.90
23371;DHT22;11858;51.056;3.712;2023-02-13T04:20:00;5.80;99.90
23371;DHT22;11858;51.056;3.712;2023-02-13T04:22:26;5.70;99.90
23371;DHT22;11858;51.056;3.712;2023-02-13T04:24:52;5.60;99.90
23371;DHT22;11858;51.056;3.712;2023-02-13T04:27:18;5.60;99.90
23371;DHT22;11858;51.056;3.712;2023-02-13T04:29:44;5.50;99.90
23371;DHT22;11858;51.056;3.712;2023-02-13T04:32:10;5.50;99.90
23371;DHT22;11858;51.056;3.712;2023-02-13T04:34:36;5.50;99.90
23371;DHT22;11858;51.056;3.712;2023-02-13T04:37:02;5.50;99.90
23371;DHT22;11858;51.056;3.712;2023-02-13T04:39:28;5.40;99.90
23371;DHT22;11858;51.056;3.712;2023-02-13T04:41:54;5.40;99.90
23371;DHT22;11858;51.056;3.712;2023-02-13T04:44:20;5.50;99.90
23371;DHT22;11858;51.056;3.712;2023-02-13T04:46:46;5.40;99.90
23371;DHT22;11858;51.056;3.712;2023-02-13T04:49:12;5.30;99.90
23371;DHT22;11858;51.056;3.712;2023-02-13T04:51:37;5.20;99.90
23371;DHT22;11858;51.056;3.712;2023-02-13T04:54:03;5.10;99.90
23371;DHT22;11858;51.056;3.712;2023-02-13T04:56:29;5.10;99.90
23371;DHT22;11858;51.056;3.712;2023-02-13T04:58:55;5.10;99.90
23371;DHT22;11858;51.056;3.712;2023-02-13T05:01:21;5.10;99.90
23371;DHT22;11858;51.056;3.712;2023-02-13T05:03:47;5.10;99.90
23371;DHT22;11858;51.056;3.712;2023-02-13T05:06:13;5.10;99.90
23371;DHT22;11858;51.056;3.712;2023-02-13T05:08:39;5.00;99.90
23371;DHT22;11858;51.056;3.712;2023-02-13T05:11:05;5.10;99.90
23371;DHT22;11858;51.056;3.712;2023-02-13T05:13:32;5.10;99.90
23371;DHT22;11858;51.056;3.712;2023-02-13T05:15:57;5.10;99.90
23371;DHT22;11858;51.056;3.712;2023-02-13T05:18:23;5.10;99.90
23371;DHT22;11858;51.056;3.712;2023-02-13T05:20:49;5.00;99.90
23371;DHT22;11858;51.056;3.712;2023-02-13T05:23:35;5.00;99.90
23371;DHT22;11858;51.056;3.712;2023-02-13T05:26:02;4.90;99.90
23371;DHT22;11858;51.056;3.712;2023-02-13T05:28:27;4.90;99.90
23371;DHT22;11858;51.056;3.712;2023-02-13T05:31:12;4.90;99.90
23371;DHT22;11858;51.056;3.712;2023-02-13T05:33:38;4.80;99.90
23371;DHT22;11858;51.056;3.712;2023-02-13T05:36:04;4.70;99.90
23371;DHT22;11858;51.056;3.712;2023-02-13T05:38:30;4.70;99.90
23371;DHT22;11858;51.056;3.712;2023-02-13T05:41:00;4.70;99.90
23371;DHT22;11858;51.056;3.712;2023-02-13T05:43:28;4.80;99.90
23371;DHT22;11858;51.056;3.712;2023-02-13T05:46:04;4.80;99.90
23371;DHT22;11858;51.056;3.712;2023-02-13T05:48:30;4.80;99.90
23371;DHT22;11858;51.056;3.712;2023-02-13T05:50:56;4.80;99.90
23371;DHT22;11858;51.056;3.712;2023-02-13T05:53:22;4.70;99.90
23371;DHT22;11858;51.056;3.712;2023-02-13T05:55:48;4.70;99.90
23371;DHT22;11858;51.056;3.712;2023-02-13T05:58:17;4.60;99.90
23371;DHT22;11858;51.056;3.712;2023-02-13T06:00:43;4.60;99.90
23371;DHT22;11858;51.056;3.712;2023-02-13T06:03:09;4.70;99.90
23371;DHT22;11858;51.056;3.712;2023-02-13T06:05:35;4.80;99.90
23371;DHT22;11858;51.056;3.712;2023-02-13T06:08:01;4.90;99.90
23371;DHT22;11858;51.056;3.712;2023-02-13T06:10:27;4.90;99.90
23371;DHT22;11858;51.056;3.712;2023-02-13T06:12:52;4.80;99.90
23371;DHT22;11858;51.056;3.712;2023-02-13T06:15:18;4.80;99.90
23371;DHT22;11858;51.056;3.712;2023-02-13T06:17:44;4.80;99.90
23371;DHT22;11858;51.056;3.712;2023-02-13T06:20:10;4.90;99.90
23371;DHT22;11858;51.056;3.712;2023-02-13T06:22:36;4.80;99.90
23371;DHT22;11858;51.056;3.712;2023-02-13T06:25:01;4.80;99.90
23371;DHT22;11858;51.056;3.712;2023-02-13T06:27:27;4.70;99.90
23371;DHT22;11858;51.056;3.712;2023-02-13T06:29:53;4.70;99.90
23371;DHT22;11858;51.056;3.712;2023-02-13T06:32:18;4.70;99.90
23371;DHT22;11858;51.056;3.712;2023-02-13T06:34:44;4.70;99.90
23371;DHT22;11858;51.056;3.712;2023-02-13T06:37:10;4.60;99.90
23371;DHT22;11858;51.056;3.712;2023-02-13T06:39:36;4.60;99.90
23371;DHT22;11858;51.056;3.712;2023-02-13T06:42:01;4.60;99.90
23371;DHT22;11858;51.056;3.712;2023-02-13T06:44:27;4.60;99.90
23371;DHT22;11858;51.056;3.712;2023-02-13T06:46:53;4.60;99.90
23371;DHT22;11858;51.056;3.712;2023-02-13T06:49:19;4.50;99.90
23371;DHT22;11858;51.056;3.712;2023-02-13T06:51:44;4.30;99.90
23371;DHT22;11858;51.056;3.712;2023-02-13T06:54:10;4.20;99.90
23371;DHT22;11858;51.056;3.712;2023-02-13T06:56:36;4.10;99.90
23371;DHT22;11858;51.056;3.712;2023-02-13T06:59:01;4.00;99.90
23371;DHT22;11858;51.056;3.712;2023-02-13T07:01:27;3.90;99.90
23371;DHT22;11858;51.056;3.712;2023-02-13T07:03:53;4.00;99.90
23371;DHT22;11858;51.056;3.712;2023-02-13T07:06:19;4.10;99.90
23371;DHT22;11858;51.056;3.712;2023-02-13T07:08:46;4.10;99.90
23371;DHT22;11858;51.056;3.712;2023-02-13T07:11:23;4.10;99.90
23371;DHT22;11858;51.056;3.712;2023-02-13T07:13:49;4.10;99.90
23371;DHT22;11858;51.056;3.712;2023-02-13T07:16:15;4.10;99.90
23371;DHT22;11858;51.056;3.712;2023-02-13T07:18:41;4.10;99.90
23371;DHT22;11858;51.056;3.712;2023-02-13T07:21:07;4.10;99.90
23371;DHT22;11858;51.056;3.712;2023-02-13T07:23:33;4.20;99.90
23371;DHT22;11858;51.056;3.712;2023-02-13T07:25:59;4.30;99.90
23371;DHT22;11858;51.056;3.712;2023-02-13T07:28:26;4.30;99.90
23371;DHT22;11858;51.056;3.712;2023-02-13T07:30:52;4.30;99.90
23371;DHT22;11858;51.056;3.712;2023-02-13T07:33:18;4.30;99.90
23371;DHT22;11858;51.056;3.712;2023-02-13T07:35:50;4.30;99.90
23371;DHT22;11858;51.056;3.712;2023-02-13T07:38:17;4.30;99.90
23371;DHT22;11858;51.056;3.712;2023-02-13T07:40:44;4.40;99.90
23371;DHT22;11858;51.056;3.712;2023-02-13T07:43:10;4.50;99.90
23371;DHT22;11858;51.056;3.712;2023-02-13T07:45:37;4.50;99.90
23371;DHT22;11858;51.056;3.712;2023-02-13T07:48:03;4.50;99.90
23371;DHT22;11858;51.056;3.712;2023-02-13T07:50:28;4.50;99.90
23371;DHT22;11858;51.056;3.712;2023-02-13T07:53:01;4.60;99.90
23371;DHT22;11858;51.056;3.712;2023-02-13T07:55:28;4.80;99.90
23371;DHT22;11858;51.056;3.712;2023-02-13T07:57:54;4.80;99.90
23371;DHT22;11858;51.056;3.712;2023-02-13T08:00:21;4.90;99.90
23371;DHT22;11858;51.056;3.712;2023-02-13T08:02:47;5.60;99.90
23371;DHT22;11858;51.056;3.712;2023-02-13T08:05:13;6.50;99.90
23371;DHT22;11858;51.056;3.712;2023-02-13T08:07:39;6.50;99.90
23371;DHT22;11858;51.056;3.712;2023-02-13T08:10:06;6.30;99.90
23371;DHT22;11858;51.056;3.712;2023-02-13T08:12:52;6.20;99.90
23371;DHT22;11858;51.056;3.712;2023-02-13T08:15:18;6.10;99.90
23371;DHT22;11858;51.056;3.712;2023-02-13T08:17:44;6.00;99.90
23371;DHT22;11858;51.056;3.712;2023-02-13T08:20:10;6.00;99.90
23371;DHT22;11858;51.056;3.712;2023-02-13T08:22:37;5.90;99.90
23371;DHT22;11858;51.056;3.712;2023-02-13T08:25:04;5.90;99.90
23371;DHT22;11858;51.056;3.712;2023-02-13T08:27:29;5.90;99.90
23371;DHT22;11858;51.056;3.712;2023-02-13T08:29:56;6.00;99.90
23371;DHT22;11858;51.056;3.712;2023-02-13T08:32:22;6.10;99.90
23371;DHT22;11858;51.056;3.712;2023-02-13T08:34:48;6.20;99.90
23371;DHT22;11858;51.056;3.712;2023-02-13T08:37:14;6.30;99.90
23371;DHT22;11858;51.056;3.712;2023-02-13T08:39:40;6.40;99.90
23371;DHT22;11858;51.056;3.712;2023-02-13T08:42:06;6.40;99.90
23371;DHT22;11858;51.056;3.712;2023-02-13T08:44:32;6.50;99.90
23371;DHT22;11858;51.056;3.712;2023-02-13T08:46:57;6.70;99.90
23371;DHT22;11858;51.056;3.712;2023-02-13T08:49:26;6.80;99.90
23371;DHT22;11858;51.056;3.712;2023-02-13T08:51:52;6.80;99.90
23371;DHT22;11858;51.056;3.712;2023-02-13T08:54:18;6.90;99.90
23371;DHT22;11858;51.056;3.712;2023-02-13T08:56:43;6.90;99.90
23371;DHT22;11858;51.056;3.712;2023-02-13T08:59:10;7.20;99.90
23371;DHT22;11858;51.056;3.712;2023-02-13T09:01:35;8.00;99.90
23371;DHT22;11858;51.056;3.712;2023-02-13T09:04:01;9.10;99.90
23371;DHT22;11858;51.056;3.712;2023-02-13T09:06:27;9.20;99.90
23371;DHT22;11858;51.056;3.712;2023-02-13T09:08:53;9.00;99.90
23371;DHT22;11858;51.056;3.712;2023-02-13T09:11:19;10.30;99.90
23371;DHT22;11858;51.056;3.712;2023-02-13T09:13:48;12.20;99.90
23371;DHT22;11858;51.056;3.712;2023-02-13T09:16:15;14.00;99.90
23371;DHT22;11858;51.056;3.712;2023-02-13T09:18:40;15.00;99.90
23371;DHT22;11858;51.056;3.712;2023-02-13T09:21:09;15.60;99.90
23371;DHT22;11858;51.056;3.712;2023-02-13T09:23:37;16.70;99.90
23371;DHT22;11858;51.056;3.712;2023-02-13T09:26:08;16.90;99.90
23371;DHT22;11858;51.056;3.712;2023-02-13T09:28:35;17.10;99.90
23371;DHT22;11858;51.056;3.712;2023-02-13T09:31:08;17.70;99.90
23371;DHT22;11858;51.056;3.712;2023-02-13T09:33:34;16.90;99.90
23371;DHT22;11858;51.056;3.712;2023-02-13T09:36:08;16.70;99.90
23371;DHT22;11858;51.056;3.712;2023-02-13T09:38:34;17.70;99.90
23371;DHT22;11858;51.056;3.712;2023-02-13T09:41:06;18.10;99.90
23371;DHT22;11858;51.056;3.712;2023-02-13T09:43:58;18.00;99.90
23371;DHT22;11858;51.056;3.712;2023-02-13T09:46:35;18.90;99.90
23371;DHT22;11858;51.056;3.712;2023-02-13T09:49:08;19.20;99.90
23371;DHT22;11858;51.056;3.712;2023-02-13T09:51:37;19.80;99.90
23371;DHT22;11858;51.056;3.712;2023-02-13T09:54:06;19.60;99.90
23371;DHT22;11858;51.056;3.712;2023-02-13T09:57:24;19.60;99.90
23371;DHT22;11858;51.056;3.712;2023-02-13T10:13:57;20.50;99.90
23371;DHT22;11858;51.056;3.712;2023-02-13T10:19:11;19.80;99.90
23371;DHT22;11858;51.056;3.712;2023-02-13T10:21:43;19.60;99.90
23371;DHT22;11858;51.056;3.712;2023-02-13T10:26:57;20.80;99.90
23371;DHT22;11858;51.056;3.712;2023-02-13T10:33:11;21.00;99.90
23371;DHT22;11858;51.056;3.712;2023-02-13T10:36:00;21.40;99.90
23371;DHT22;11858;51.056;3.712;2023-02-13T10:38:32;21.60;99.90
23371;DHT22;11858;51.056;3.712;2023-02-13T10:43:36;20.40;99.90
23371;DHT22;11858;51.056;3.712;2023-02-13T10:46:13;21.00;99.90
23371;DHT22;11858;51.056;3.712;2023-02-13T10:51:50;20.80;99.90
23371;DHT22;11858;51.056;3.712;2023-02-13T11:03:04;21.20;99.90
23371;DHT22;11858;51.056;3.712;2023-02-13T11:05:36;20.90;99.90
23371;DHT22;11858;51.056;3.712;2023-02-13T11:08:05;21.50;99.90
23371;DHT22;11858;51.056;3.712;2023-02-13T11:10:35;21.90;99.90
23371;DHT22;11858;51.056;3.712;2023-02-13T11:13:18;22.30;99.90
23371;DHT22;11858;51.056;3.712;2023-02-13T11:15:57;22.40;99.30
23371;DHT22;11858;51.056;3.712;2023-02-13T11:18:26;20.80;99.90
23371;DHT22;11858;51.056;3.712;2023-02-13T11:21:15;20.80;99.90
23371;DHT22;11858;51.056;3.712;2023-02-13T11:23:48;21.80;99.90
23371;DHT22;11858;51.056;3.712;2023-02-13T11:26:20;22.00;99.90
23371;DHT22;11858;51.056;3.712;2023-02-13T11:28:56;22.30;98.80
23371;DHT22;11858;51.056;3.712;2023-02-13T11:31:29;21.90;98.40
23371;DHT22;11858;51.056;3.712;2023-02-13T11:33:56;22.10;98.60
23371;DHT22;11858;51.056;3.712;2023-02-13T11:36:26;22.60;98.00
23371;DHT22;11858;51.056;3.712;2023-02-13T11:39:04;22.70;97.70
23371;DHT22;11858;51.056;3.712;2023-02-13T11:41:39;22.90;96.20
23371;DHT22;11858;51.056;3.712;2023-02-13T11:46:57;21.60;97.60
23371;DHT22;11858;51.056;3.712;2023-02-13T11:49:29;22.00;98.10
23371;DHT22;11858;51.056;3.712;2023-02-13T11:51:59;22.60;97.40
23371;DHT22;11858;51.056;3.712;2023-02-13T11:57:02;23.00;95.40
23371;DHT22;11858;51.056;3.712;2023-02-13T11:59:42;23.60;94.90
23371;DHT22;11858;51.056;3.712;2023-02-13T12:02:29;23.70;94.40
23371;DHT22;11858;51.056;3.712;2023-02-13T12:05:18;23.20;94.20
23371;DHT22;11858;51.056;3.712;2023-02-13T12:07:45;22.80;94.90
23371;DHT22;11858;51.056;3.712;2023-02-13T12:12:56;23.70;93.30
23371;DHT22;11858;51.056;3.712;2023-02-13T12:20:50;23.80;93.20
23371;DHT22;11858;51.056;3.712;2023-02-13T12:40:26;23.20;92.40
23371;DHT22;11858;51.056;3.712;2023-02-13T12:43:11;24.20;91.80
23371;DHT22;11858;51.056;3.712;2023-02-13T12:46:05;24.20;92.40
23371;DHT22;11858;51.056;3.712;2023-02-13T12:51:42;25.20;89.40
23371;DHT22;11858;51.056;3.712;2023-02-13T12:56:48;24.90;89.10
23371;DHT22;11858;51.056;3.712;2023-02-13T13:05:52;24.90;88.10
23371;DHT22;11858;51.056;3.712;2023-02-13T13:10:53;25.40;87.10
23371;DHT22;11858;51.056;3.712;2023-02-13T13:16:46;24.80;86.60
23371;DHT22;11858;51.056;3.712;2023-02-13T13:22:07;25.30;85.50
23371;DHT22;11858;51.056;3.712;2023-02-13T13:24:59;25.20;84.70
23371;DHT22;11858;51.056;3.712;2023-02-13T13:27:31;25.50;84.00
23371;DHT22;11858;51.056;3.712;2023-02-13T13:30:12;25.20;83.90
23371;DHT22;11858;51.056;3.712;2023-02-13T13:32:42;24.80;84.70
23371;DHT22;11858;51.056;3.712;2023-02-13T13:35:19;25.50;84.20
23371;DHT22;11858;51.056;3.712;2023-02-13T13:40:48;26.10;82.30
23371;DHT22;11858;51.056;3.712;2023-02-13T13:48:54;26.10;79.90
23371;DHT22;11858;51.056;3.712;2023-02-13T13:51:24;25.80;79.70
23371;DHT22;11858;51.056;3.712;2023-02-13T13:59:54;25.30;80.20
23371;DHT22;11858;51.056;3.712;2023-02-13T14:05:16;25.60;80.80
23371;DHT22;11858;51.056;3.712;2023-02-13T14:07:43;25.80;79.90
23371;DHT22;11858;51.056;3.712;2023-02-13T14:12:59;25.40;79.40
23371;DHT22;11858;51.056;3.712;2023-02-13T14:20:37;24.80;81.30
23371;DHT22;11858;51.056;3.712;2023-02-13T14:23:12;25.00;81.80
23371;DHT22;11858;51.056;3.712;2023-02-13T14:25:39;25.00;80.40
23371;DHT22;11858;51.056;3.712;2023-02-13T14:28:05;24.40;81.60
23371;DHT22;11858;51.056;3.712;2023-02-13T14:30:36;24.30;82.40
23371;DHT22;11858;51.056;3.712;2023-02-13T14:33:05;25.20;81.20
23371;DHT22;11858;51.056;3.712;2023-02-13T14:35:34;25.30;80.10
23371;DHT22;11858;51.056;3.712;2023-02-13T14:38:06;25.40;79.30
23371;DHT22;11858;51.056;3.712;2023-02-13T14:40:51;25.30;80.60
23371;DHT22;11858;51.056;3.712;2023-02-13T14:46:27;25.20;79.40
23371;DHT22;11858;51.056;3.712;2023-02-13T14:51:57;24.30;81.50
23371;DHT22;11858;51.056;3.712;2023-02-13T14:54:44;24.60;81.40
23371;DHT22;11858;51.056;3.712;2023-02-13T14:59:55;24.40;80.80
23371;DHT22;11858;51.056;3.712;2023-02-13T15:02:34;24.10;82.40
23371;DHT22;11858;51.056;3.712;2023-02-13T15:05:09;24.00;82.40
23371;DHT22;11858;51.056;3.712;2023-02-13T15:07:44;23.90;82.50
23371;DHT22;11858;51.056;3.712;2023-02-13T15:12:59;23.50;82.30
23371;DHT22;11858;51.056;3.712;2023-02-13T15:15:28;23.40;83.80
23371;DHT22;11858;51.056;3.712;2023-02-13T15:17:59;23.20;83.70
23371;DHT22;11858;51.056;3.712;2023-02-13T15:20:27;22.80;84.70
23371;DHT22;11858;51.056;3.712;2023-02-13T15:22:56;22.60;85.90
23371;DHT22;11858;51.056;3.712;2023-02-13T15:25:43;22.00;86.70
23371;DHT22;11858;51.056;3.712;2023-02-13T15:28:19;21.90;88.20
23371;DHT22;11858;51.056;3.712;2023-02-13T15:30:54;22.10;87.50
23371;DHT22;11858;51.056;3.712;2023-02-13T15:33:22;22.20;87.00
23371;DHT22;11858;51.056;3.712;2023-02-13T15:36:00;22.40;87.00
23371;DHT22;11858;51.056;3.712;2023-02-13T15:40:56;21.50;89.00
23371;DHT22;11858;51.056;3.712;2023-02-13T15:43:35;21.30;90.10
23371;DHT22;11858;51.056;3.712;2023-02-13T15:49:21;19.80;92.20
23371;DHT22;11858;51.056;3.712;2023-02-13T15:51:48;19.10;94.50
23371;DHT22;11858;51.056;3.712;2023-02-13T15:54:31;18.40;95.90
23371;DHT22;11858;51.056;3.712;2023-02-13T15:56:59;17.90;98.20
23371;DHT22;11858;51.056;3.712;2023-02-13T15:59:36;17.40;99.90
23371;DHT22;11858;51.056;3.712;2023-02-13T16:02:05;16.90;99.90
23371;DHT22;11858;51.056;3.712;2023-02-13T16:04:36;16.70;99.90
23371;DHT22;11858;51.056;3.712;2023-02-13T16:07:02;16.50;99.90
23371;DHT22;11858;51.056;3.712;2023-02-13T16:09:33;16.40;99.90
23371;DHT22;11858;51.056;3.712;2023-02-13T16:12:05;16.20;99.90
23371;DHT22;11858;51.056;3.712;2023-02-13T16:14:36;16.00;99.90
23371;DHT22;11858;51.056;3.712;2023-02-13T16:17:16;15.80;99.90
23371;DHT22;11858;51.056;3.712;2023-02-13T16:23:12;15.30;99.90
23371;DHT22;11858;51.056;3.712;2023-02-13T16:30:34;15.30;99.90
23371;DHT22;11858;51.056;3.712;2023-02-13T16:33:18;15.00;99.90
23371;DHT22;11858;51.056;3.712;2023-02-13T16:35:58;14.90;99.90
23371;DHT22;11858;51.056;3.712;2023-02-13T16:38:37;14.70;99.90
23371;DHT22;11858;51.056;3.712;2023-02-13T16:51:30;14.20;99.90
23371;DHT22;11858;51.056;3.712;2023-02-13T17:01:45;13.60;99.90
23371;DHT22;11858;51.056;3.712;2023-02-13T17:04:24;13.50;99.90
23371;DHT22;11858;51.056;3.712;2023-02-13T17:06:55;13.40;99.90
23371;DHT22;11858;51.056;3.712;2023-02-13T17:09:21;13.40;99.90
23371;DHT22;11858;51.056;3.712;2023-02-13T17:11:52;13.20;99.90
23371;DHT22;11858;51.056;3.712;2023-02-13T17:14:18;12.80;99.90
23371;DHT22;11858;51.056;3.712;2023-02-13T17:16:46;12.70;99.90
23371;DHT22;11858;51.056;3.712;2023-02-13T17:19:12;12.50;99.90
23371;DHT22;11858;51.056;3.712;2023-02-13T17:21:38;12.20;99.90
23371;DHT22;11858;51.056;3.712;2023-02-13T17:24:05;12.00;99.90
23371;DHT22;11858;51.056;3.712;2023-02-13T17:26:31;11.90;99.90
23371;DHT22;11858;51.056;3.712;2023-02-13T17:28:57;11.80;99.90
23371;DHT22;11858;51.056;3.712;2023-02-13T17:31:23;11.80;99.90
23371;DHT22;11858;51.056;3.712;2023-02-13T17:33:48;11.70;99.90
23371;DHT22;11858;51.056;3.712;2023-02-13T17:36:14;11.50;99.90
23371;DHT22;11858;51.056;3.712;2023-02-13T17:38:40;11.40;99.90
23371;DHT22;11858;51.056;3.712;2023-02-13T17:41:12;11.30;99.90
23371;DHT22;11858;51.056;3.712;2023-02-13T17:43:38;11.20;99.90
23371;DHT22;11858;51.056;3.712;2023-02-13T17:46:04;11.10;99.90
23371;DHT22;11858;51.056;3.712;2023-02-13T17:48:30;11.00;99.90
23371;DHT22;11858;51.056;3.712;2023-02-13T17:50:56;10.80;99.90
23371;DHT22;11858;51.056;3.712;2023-02-13T17:53:23;10.80;99.90
23371;DHT22;11858;51.056;3.712;2023-02-13T17:55:49;10.80;99.90
23371;DHT22;11858;51.056;3.712;2023-02-13T17:58:15;10.70;99.90
23371;DHT22;11858;51.056;3.712;2023-02-13T18:00:41;10.70;99.90
23371;DHT22;11858;51.056;3.712;2023-02-13T18:03:07;10.60;99.90
23371;DHT22;11858;51.056;3.712;2023-02-13T18:05:33;10.60;99.90
23371;DHT22;11858;51.056;3.712;2023-02-13T18:07:59;10.50;99.90
23371;DHT22;11858;51.056;3.712;2023-02-13T18:10:30;10.50;99.90
23371;DHT22;11858;51.056;3.712;2023-02-13T18:12:57;10.40;99.90
23371;DHT22;11858;51.056;3.712;2023-02-13T18:15:29;10.30;99.90
23371;DHT22;11858;51.056;3.712;2023-02-13T18:17:55;10.20;99.90
23371;DHT22;11858;51.056;3.712;2023-02-13T18:20:21;10.30;99.90
23371;DHT22;11858;51.056;3.712;2023-02-13T18:22:48;10.20;99.90
23371;DHT22;11858;51.056;3.712;2023-02-13T18:25:17;10.20;99.90
23371;DHT22;11858;51.056;3.712;2023-02-13T18:27:44;10.10;99.90
23371;DHT22;11858;51.056;3.712;2023-02-13T18:30:11;10.00;99.90
23371;DHT22;11858;51.056;3.712;2023-02-13T18:32:38;10.00;99.90
23371;DHT22;11858;51.056;3.712;2023-02-13T18:35:04;9.80;99.90
23371;DHT22;11858;51.056;3.712;2023-02-13T18:37:32;9.80;99.90
23371;DHT22;11858;51.056;3.712;2023-02-13T18:39:58;9.70;99.90
23371;DHT22;11858;51.056;3.712;2023-02-13T18:42:24;9.70;99.90
23371;DHT22;11858;51.056;3.712;2023-02-13T18:44:49;9.60;99.90
23371;DHT22;11858;51.056;3.712;2023-02-13T18:47:15;9.60;99.90
23371;DHT22;11858;51.056;3.712;2023-02-13T18:49:41;9.60;99.90
23371;DHT22;11858;51.056;3.712;2023-02-13T18:52:07;9.60;99.90
23371;DHT22;11858;51.056;3.712;2023-02-13T18:54:33;9.50;99.90
23371;DHT22;11858;51.056;3.712;2023-02-13T18:57:00;9.40;99.90
23371;DHT22;11858;51.056;3.712;2023-02-13T18:59:25;9.40;99.90
23371;DHT22;11858;51.056;3.712;2023-02-13T19:01:51;9.40;99.90
23371;DHT22;11858;51.056;3.712;2023-02-13T19:04:17;9.40;99.90
23371;DHT22;11858;51.056;3.712;2023-02-13T19:06:43;9.30;99.90
23371;DHT22;11858;51.056;3.712;2023-02-13T19:09:10;9.10;99.90
23371;DHT22;11858;51.056;3.712;2023-02-13T19:11:36;9.10;99.90
23371;DHT22;11858;51.056;3.712;2023-02-13T19:14:04;9.00;99.90
23371;DHT22;11858;51.056;3.712;2023-02-13T19:16:31;8.90;99.90
23371;DHT22;11858;51.056;3.712;2023-02-13T19:19:01;8.90;99.90
23371;DHT22;11858;51.056;3.712;2023-02-13T19:21:29;8.90;99.90
23371;DHT22;11858;51.056;3.712;2023-02-13T19:23:55;8.90;99.90
23371;DHT22;11858;51.056;3.712;2023-02-13T19:26:23;8.90;99.90
23371;DHT22;11858;51.056;3.712;2023-02-13T19:28:49;8.80;99.90
23371;DHT22;11858;51.056;3.712;2023-02-13T19:31:17;8.70;99.90
23371;DHT22;11858;51.056;3.712;2023-02-13T19:33:44;8.70;99.90
23371;DHT22;11858;51.056;3.712;2023-02-13T19:36:12;8.70;99.90
23371;DHT22;11858;51.056;3.712;2023-02-13T19:38:40;8.60;99.90
23371;DHT22;11858;51.056;3.712;2023-02-13T19:41:13;8.60;99.90
23371;DHT22;11858;51.056;3.712;2023-02-13T19:43:39;8.60;99.90